Time;durP1;ratioP1;P1;durP2;ratioP2;P2;SDS_P1;SDS_P2;PMS_P1;PMS_P2;Temp;Humidity;BMP_temperature;BMP_pressure;BME280_temperature;BME280_humidity;BME280_pressure;Samples;Min_cycle;Max_cycle;Signal;HPM_P1;HPM_P2
2022/07/17 00:01:14;;;;;;;1.73;1.30;;;;;;;14.93;64.95;98498.78;6159689;28;20257;-83
2022/07/17 00:04:16;;;;;;;2.93;1.30;;;;;;;14.84;65.63;98501.38;6159681;28;20261;-83
2022/07/17 00:07:20;;;;;;;1.47;1.10;;;;;;;14.72;65.61;98498.78;6158361;28;20238;-83
2022/07/17 00:10:23;;;;;;;1.50;1.30;;;;;;;14.65;65.96;98502.94;6159259;28;20267;-83
2022/07/17 00:13:25;;;;;;;1.27;1.17;;;;;;;14.55;66.25;98506.47;6151413;28;20282;-85
2022/07/17 00:16:27;;;;;;;3.20;1.20;;;;;;;14.43;66.41;98503.03;6142374;28;20234;-85
2022/07/17 00:19:29;;;;;;;3.73;1.50;;;;;;;14.31;67.29;98517.28;6157521;28;20237;-85
2022/07/17 00:22:31;;;;;;;2.83;1.60;;;;;;;14.19;67.83;98508.50;6174950;28;20234;-85
2022/07/17 00:25:33;;;;;;;2.10;1.60;;;;;;;14.13;68.12;98509.00;6158954;28;20328;-85
2022/07/17 00:28:35;;;;;;;2.50;1.27;;;;;;;14.06;68.32;98509.63;6157344;28;20233;-85
2022/07/17 00:31:37;;;;;;;1.30;1.20;;;;;;;13.99;68.74;98514.59;6174917;28;20246;-85
2022/07/17 00:34:39;;;;;;;4.57;1.40;;;;;;;13.92;68.79;98514.25;6159556;28;20579;-85
2022/07/17 00:37:44;;;;;;;2.00;1.53;;;;;;;13.88;69.17;98512.78;6157830;28;20237;-85
2022/07/17 00:40:47;;;;;;;2.53;1.60;;;;;;;13.82;69.33;98515.09;6159468;28;20764;-85
2022/07/17 00:43:49;;;;;;;2.60;1.70;;;;;;;13.76;69.81;98513.81;6135154;28;20758;-85
2022/07/17 00:46:51;;;;;;;1.43;1.33;;;;;;;13.71;69.71;98521.25;6166775;28;20741;-85
2022/07/17 00:49:53;;;;;;;1.53;1.43;;;;;;;13.71;69.93;98513.31;6158748;28;20728;-85
2022/07/17 00:52:55;;;;;;;1.40;1.30;;;;;;;13.72;69.85;98512.34;6143608;28;20226;-85
2022/07/17 00:56:00;;;;;;;2.27;1.27;;;;;;;13.75;69.34;98513.91;6158741;28;20225;-85
2022/07/17 00:59:03;;;;;;;1.80;1.47;;;;;;;13.78;68.81;98519.81;6158853;28;20222;-85
2022/07/17 01:02:13;;;;;;;3.30;1.30;;;;;;;13.78;69.07;98526.91;6158236;28;20257;-85
2022/07/17 01:05:17;;;;;;;2.37;1.50;;;;;;;13.79;69.00;98529.44;6142212;28;20234;-85
2022/07/17 01:08:21;;;;;;;2.43;1.13;;;;;;;13.83;69.26;98535.38;6157892;28;20837;-85
2022/07/17 01:11:24;;;;;;;1.90;1.37;;;;;;;13.82;69.05;98537.19;6141173;28;20237;-85
2022/07/17 01:14:27;;;;;;;1.30;1.20;;;;;;;13.83;69.01;98530.91;6150047;28;20230;-85
2022/07/17 01:17:30;;;;;;;2.50;1.37;;;;;;;13.85;69.54;98539.59;6147244;28;20233;-85
2022/07/17 01:20:33;;;;;;;1.87;1.27;;;;;;;13.84;69.78;98542.38;6140053;28;20229;-85
2022/07/17 01:23:35;;;;;;;1.27;1.17;;;;;;;13.81;69.83;98534.63;6140523;28;20226;-85
2022/07/17 01:26:40;;;;;;;4.53;1.30;;;;;;;13.81;69.63;98537.28;6157944;28;20713;-85
2022/07/17 01:29:42;;;;;;;1.30;1.20;;;;;;;13.80;69.82;98536.44;6145460;28;20639;-85
2022/07/17 01:32:45;;;;;;;1.37;1.23;;;;;;;13.76;69.80;98542.13;6157507;28;20261;-85
2022/07/17 01:35:47;;;;;;;1.03;1.03;;;;;;;13.70;69.48;98543.44;6158079;28;20599;-85
2022/07/17 01:38:49;;;;;;;1.50;1.40;;;;;;;13.61;69.44;98539.72;6156605;28;20230;-85
2022/07/17 01:41:51;;;;;;;1.50;1.00;;;;;;;13.55;69.53;98542.03;6156484;28;20752;-85
2022/07/17 01:44:54;;;;;;;1.43;1.33;;;;;;;13.47;69.90;98539.13;6140045;28;20600;-85
2022/07/17 01:47:56;;;;;;;2.37;1.10;;;;;;;13.41;70.09;98537.78;6141669;28;20245;-85
2022/07/17 01:50:58;;;;;;;2.77;1.70;;;;;;;13.33;70.11;98542.84;6140430;28;20713;-85
2022/07/17 01:54:01;;;;;;;1.30;1.20;;;;;;;13.25;70.03;98539.97;6157239;28;20721;-85
2022/07/17 01:57:03;;;;;;;1.63;1.10;;;;;;;13.18;70.57;98547.50;6156099;28;20225;-85
2022/07/17 02:00:08;;;;;;;1.10;1.00;;;;;;;13.10;70.61;98538.44;6148498;28;20210;-85
2022/07/17 02:03:10;;;;;;;1.50;1.33;;;;;;;13.05;70.67;98540.63;6154691;28;20216;-85
2022/07/17 02:06:12;;;;;;;2.00;1.30;;;;;;;12.97;70.94;98541.22;6140563;28;20218;-85
2022/07/17 02:09:14;;;;;;;1.10;1.00;;;;;;;12.94;70.80;98541.44;6172514;28;20364;-85
2022/07/17 02:12:16;;;;;;;1.63;1.30;;;;;;;12.90;71.38;98547.91;6147911;28;20278;-85
2022/07/17 02:15:18;;;;;;;1.00;0.80;;;;;;;12.82;71.43;98553.78;6140799;28;20722;-85
2022/07/17 02:18:20;;;;;;;1.30;1.20;;;;;;;12.74;71.60;98555.34;6155125;28;20265;-85
2022/07/17 02:21:22;;;;;;;1.90;1.00;;;;;;;12.66;72.09;98552.41;6155936;28;20462;-85
2022/07/17 02:24:24;;;;;;;1.60;1.20;;;;;;;12.56;72.49;98554.91;6155693;28;20364;-85
2022/07/17 02:27:27;;;;;;;1.40;1.30;;;;;;;12.51;72.80;98554.41;6155541;28;20229;-85
2022/07/17 02:30:29;;;;;;;0.90;0.90;;;;;;;12.43;72.96;98560.25;6150995;28;20378;-85
2022/07/17 02:33:31;;;;;;;1.33;0.90;;;;;;;12.35;73.06;98556.50;6156511;28;20229;-85
2022/07/17 02:36:33;;;;;;;1.73;1.10;;;;;;;12.25;73.35;98564.25;6143710;28;20225;-85
2022/07/17 02:39:35;;;;;;;1.30;1.00;;;;;;;12.16;73.55;98559.66;6152019;28;20226;-85
2022/07/17 02:42:37;;;;;;;1.60;1.03;;;;;;;12.11;73.43;98561.75;6138754;28;20743;-85
2022/07/17 02:45:39;;;;;;;1.50;1.40;;;;;;;12.05;73.70;98568.34;6157318;28;20233;-85
2022/07/17 02:48:42;;;;;;;1.63;1.00;;;;;;;11.95;73.99;98569.13;6154982;28;20832;-85
2022/07/17 02:51:44;;;;;;;1.47;1.00;;;;;;;11.94;74.08;98562.13;6155433;28;20256;-85
2022/07/17 02:54:46;;;;;;;1.43;1.00;;;;;;;11.93;73.84;98555.16;6171409;28;20693;-85
2022/07/17 02:57:48;;;;;;;1.33;1.10;;;;;;;11.84;74.00;98561.97;6147776;28;20732;-85
2022/07/17 03:00:51;;;;;;;1.40;1.10;;;;;;;11.78;73.62;98563.22;6136951;28;20621;-85
2022/07/17 03:03:53;;;;;;;1.57;0.83;;;;;;;11.71;74.06;98563.75;6138883;28;20265;-85
2022/07/17 03:06:55;;;;;;;3.07;1.07;;;;;;;11.64;74.21;98565.97;6140302;28;20238;-85
2022/07/17 03:09:57;;;;;;;3.23;1.20;;;;;;;11.54;74.83;98564.94;6154478;28;20243;-85
2022/07/17 03:12:59;;;;;;;0.97;0.93;;;;;;;11.43;75.05;98567.47;6155434;28;20321;-85
2022/07/17 03:16:01;;;;;;;1.93;0.90;;;;;;;11.35;75.54;98568.00;6155670;28;20271;-85
2022/07/17 03:19:03;;;;;;;1.70;1.17;;;;;;;11.37;75.20;98566.13;6154975;28;20245;-85
2022/07/17 03:22:05;;;;;;;0.70;0.70;;;;;;;11.35;74.90;98572.44;6156920;28;20295;-85
2022/07/17 03:25:08;;;;;;;2.07;1.10;;;;;;;11.28;75.13;98574.66;6154724;28;20246;-85
2022/07/17 03:28:10;;;;;;;1.23;1.00;;;;;;;11.25;74.96;98569.59;6155311;28;20356;-85
2022/07/17 03:31:12;;;;;;;1.80;1.20;;;;;;;11.29;75.32;98576.34;6148650;28;20381;-84
2022/07/17 03:34:15;;;;;;;2.30;1.00;;;;;;;11.38;74.96;98580.16;6139311;28;20601;-85
2022/07/17 03:37:17;;;;;;;2.23;1.07;;;;;;;11.40;74.65;98580.91;6154750;28;20734;-85
2022/07/17 03:40:19;;;;;;;1.00;1.00;;;;;;;11.44;74.57;98580.59;6154015;28;20240;-85
2022/07/17 03:43:21;;;;;;;1.47;0.90;;;;;;;11.40;74.75;98576.47;6156615;28;20236;-84
2022/07/17 03:46:23;;;;;;;1.57;0.93;;;;;;;11.41;74.51;98577.31;6153908;28;20327;-85
2022/07/17 03:49:25;;;;;;;2.10;1.27;;;;;;;11.46;74.52;98589.25;6137398;28;20331;-85
2022/07/17 03:52:27;;;;;;;2.70;0.90;;;;;;;11.47;74.71;98590.13;6157234;28;20604;-85
2022/07/17 03:55:29;;;;;;;1.17;0.90;;;;;;;11.46;74.58;98583.97;6158103;28;20233;-85
2022/07/17 03:58:32;;;;;;;1.10;1.00;;;;;;;11.46;74.75;98588.41;6142868;28;20769;-85
2022/07/17 04:01:34;;;;;;;0.93;0.90;;;;;;;11.51;74.33;98591.56;6142137;28;20821;-85
2022/07/17 04:04:36;;;;;;;3.57;1.17;;;;;;;11.61;74.34;98592.63;6158510;28;20255;-85
2022/07/17 04:07:40;;;;;;;4.10;0.97;;;;;;;11.71;74.31;98593.66;6159829;28;20277;-85
2022/07/17 04:10:42;;;;;;;1.30;1.10;;;;;;;11.71;73.68;98590.19;6158241;28;20225;-85
2022/07/17 04:13:44;;;;;;;1.10;1.00;;;;;;;11.70;73.88;98584.03;6151567;28;20241;-85
2022/07/17 04:16:46;;;;;;;2.30;1.00;;;;;;;11.75;73.81;98589.06;6166096;28;20244;-85
2022/07/17 04:19:49;;;;;;;2.73;1.20;;;;;;;11.83;73.86;98592.00;6158750;28;20239;-85
2022/07/17 04:22:51;;;;;;;2.53;1.27;;;;;;;11.96;73.37;98591.97;6160436;28;20711;-84
2022/07/17 04:25:53;;;;;;;1.93;1.13;;;;;;;12.08;73.20;98599.03;6178437;28;20601;-85
2022/07/17 04:28:55;;;;;;;1.40;1.00;;;;;;;12.16;72.80;98597.53;6175642;28;20248;-85
2022/07/17 04:31:57;;;;;;;1.67;1.20;;;;;;;12.25;72.84;98597.81;6182778;28;20777;-85
2022/07/17 04:34:59;;;;;;;1.07;1.00;;;;;;;12.31;72.37;98598.22;6151731;28;20327;-85
2022/07/17 04:38:04;;;;;;;1.40;1.30;;;;;;;12.32;72.47;98597.25;6149893;28;20376;-85
2022/07/17 04:41:08;;;;;;;1.27;0.90;;;;;;;12.24;72.21;98599.63;6157160;28;20605;-85
2022/07/17 04:44:10;;;;;;;0.90;0.90;;;;;;;12.19;72.42;98599.09;6149941;28;20227;-85
2022/07/17 04:47:12;;;;;;;1.80;1.20;;;;;;;12.18;72.77;98603.53;6144008;28;20237;-85
2022/07/17 04:50:14;;;;;;;1.53;1.10;;;;;;;12.19;72.52;98601.75;6157438;28;20229;-85
2022/07/17 04:53:16;;;;;;;1.00;0.90;;;;;;;12.19;73.24;98601.75;6157891;28;20811;-85
2022/07/17 04:56:24;;;;;;;1.10;0.90;;;;;;;12.23;72.83;98594.44;6157553;28;20225;-85
2022/07/17 04:59:26;;;;;;;1.53;1.20;;;;;;;12.28;72.74;98602.91;6157408;28;20268;-85
2022/07/17 05:02:28;;;;;;;1.27;1.00;;;;;;;12.31;73.07;98597.38;6141862;28;20732;-86
2022/07/17 05:05:30;;;;;;;2.33;1.00;;;;;;;12.31;73.37;98597.38;6156135;28;20240;-85
2022/07/17 05:08:34;;;;;;;1.40;0.90;;;;;;;12.32;73.71;98607.84;6157224;28;20246;-85
2022/07/17 05:11:36;;;;;;;1.47;1.10;;;;;;;12.34;73.56;98602.44;6141494;28;20229;-84
2022/07/17 05:14:38;;;;;;;1.33;0.90;;;;;;;12.37;73.50;98602.22;6157190;28;20316;-84
2022/07/17 05:17:40;;;;;;;2.30;1.20;;;;;;;12.39;73.68;98606.44;6158790;28;20273;-85
2022/07/17 05:20:42;;;;;;;2.10;0.80;;;;;;;12.41;73.80;98604.53;6172811;28;20287;-85
2022/07/17 05:23:44;;;;;;;1.63;1.00;;;;;;;12.44;73.93;98606.97;6140042;28;20602;-85
2022/07/17 05:26:46;;;;;;;1.87;1.00;;;;;;;12.51;74.25;98604.69;6148946;28;20230;-85
2022/07/17 05:29:48;;;;;;;1.07;0.90;;;;;;;12.55;74.62;98606.19;6160502;28;20386;-85
2022/07/17 05:32:50;;;;;;;1.10;1.00;;;;;;;12.61;74.61;98608.38;6164683;28;20230;-89
2022/07/17 05:35:52;;;;;;;2.83;1.33;;;;;;;12.70;74.63;98609.47;6141388;28;20240;-89
2022/07/17 05:38:54;;;;;;;1.10;1.00;;;;;;;12.75;75.21;98602.91;6155419;28;20245;-88
2022/07/17 05:41:56;;;;;;;1.20;1.10;;;;;;;12.83;75.05;98611.13;6141393;28;20595;-88
2022/07/17 05:44:58;;;;;;;1.70;1.10;;;;;;;12.88;74.76;98603.66;6153397;28;20387;-89
2022/07/17 05:48:01;;;;;;;2.00;1.07;;;;;;;12.97;75.22;98607.44;6148729;28;20236;-88
2022/07/17 05:51:03;;;;;;;2.83;1.27;;;;;;;13.06;75.47;98609.41;6156115;28;20265;-88
2022/07/17 05:54:13;;;;;;;1.97;1.10;;;;;;;13.11;75.43;98609.88;6141853;28;20232;-88
2022/07/17 05:57:15;;;;;;;0.90;0.87;;;;;;;13.21;75.37;98607.41;6148729;28;20242;-88
2022/07/17 06:00:18;;;;;;;1.50;0.87;;;;;;;13.28;75.70;98616.56;6124124;28;20285;-88
2022/07/17 06:03:20;;;;;;;1.17;1.00;;;;;;;13.36;75.42;98614.22;6144851;28;20209;-89
2022/07/17 06:06:22;;;;;;;1.90;1.20;;;;;;;13.44;75.25;98617.09;6156577;28;20225;-88
2022/07/17 06:09:24;;;;;;;1.00;0.97;;;;;;;13.53;75.16;98621.69;6155470;28;20304;-88
2022/07/17 06:12:26;;;;;;;0.83;0.83;;;;;;;13.61;75.10;98621.09;6139616;28;20601;-88
2022/07/17 06:15:28;;;;;;;1.50;0.83;;;;;;;13.73;75.09;98624.63;6155263;28;20315;-89
2022/07/17 06:18:30;;;;;;;2.03;0.97;;;;;;;13.85;75.01;98621.84;6139167;28;20229;-88
2022/07/17 06:21:33;;;;;;;1.20;0.83;;;;;;;13.97;74.54;98622.69;6139818;28;20233;-88
2022/07/17 06:24:35;;;;;;;1.90;1.10;;;;;;;14.14;74.79;98624.84;6155536;28;20232;-88
2022/07/17 06:27:41;;;;;;;1.40;1.10;;;;;;;14.34;73.94;98624.09;6147904;28;20265;-88
2022/07/17 06:30:43;;;;;;;3.97;1.20;;;;;;;14.53;73.72;98623.47;6139298;28;20309;-88
2022/07/17 06:33:45;;;;;;;1.20;1.10;;;;;;;14.78;73.13;98627.63;6123556;28;20237;-88
2022/07/17 06:36:47;;;;;;;1.83;0.80;;;;;;;15.16;70.25;98620.94;6156017;28;20229;-88
2022/07/17 06:39:49;;;;;;;2.30;1.10;;;;;;;15.50;69.55;98622.44;6156478;28;20241;-89
2022/07/17 06:42:52;;;;;;;1.40;0.90;;;;;;;15.78;68.58;98616.44;6140087;28;20234;-88
2022/07/17 06:45:55;;;;;;;1.07;0.87;;;;;;;16.11;65.97;98620.66;6155233;28;20723;-89
2022/07/17 06:48:57;;;;;;;1.27;0.97;;;;;;;16.46;65.69;98624.69;6155992;28;20238;-89
2022/07/17 06:51:59;;;;;;;2.90;0.97;;;;;;;16.83;63.92;98622.25;6138591;28;20241;-89
2022/07/17 06:55:01;;;;;;;2.50;1.00;;;;;;;17.14;62.51;98620.28;6139197;28;20233;-89
2022/07/17 06:58:03;;;;;;;3.47;1.20;;;;;;;17.52;61.17;98622.06;6154946;28;20249;-88
2022/07/17 07:01:05;;;;;;;1.40;0.80;;;;;;;17.84;59.32;98621.75;6138427;28;20226;-88
2022/07/17 07:04:07;;;;;;;2.57;1.10;;;;;;;18.15;57.42;98625.00;6155586;28;20316;-88
2022/07/17 07:07:10;;;;;;;2.97;0.80;;;;;;;18.54;55.29;98622.94;6139640;28;20236;-88
2022/07/17 07:10:12;;;;;;;5.60;1.20;;;;;;;18.89;53.87;98630.19;6138995;28;20233;-88
2022/07/17 07:13:14;;;;;;;2.90;1.03;;;;;;;19.12;52.51;98629.59;6131615;28;20246;-88
2022/07/17 07:16:16;;;;;;;0.93;0.57;;;;;;;19.18;51.80;98628.13;6122729;28;20245;-87
2022/07/17 07:19:19;;;;;;;1.77;0.80;;;;;;;19.26;49.17;98622.88;6154680;28;20233;-88
2022/07/17 07:22:20;;;;;;;1.30;0.80;;;;;;;19.49;48.35;98625.91;6156953;28;20233;-88
2022/07/17 07:25:23;;;;;;;1.27;1.00;;;;;;;19.67;47.62;98621.34;6154030;28;20717;-88
2022/07/17 07:28:25;;;;;;;1.47;0.90;;;;;;;20.09;47.37;98623.25;6143359;28;20241;-88
2022/07/17 07:31:27;;;;;;;3.43;0.90;;;;;;;20.67;44.87;98620.66;6194167;28;20433;-88
2022/07/17 07:34:29;;;;;;;1.97;1.03;;;;;;;21.41;43.51;98618.94;6152767;28;20246;-88
2022/07/17 07:37:32;;;;;;;2.10;0.80;;;;;;;22.12;41.77;98626.22;6142612;28;20249;-88
2022/07/17 07:40:34;;;;;;;1.57;0.70;;;;;;;22.59;38.75;98623.50;6160055;28;20729;-88
2022/07/17 07:43:37;;;;;;;1.97;0.90;;;;;;;22.99;37.56;98625.97;6155508;28;20282;-87
2022/07/17 07:46:39;;;;;;;3.27;0.70;;;;;;;23.33;37.65;98622.03;6138231;28;20243;-85
2022/07/17 07:49:41;;;;;;;1.20;0.80;;;;;;;23.94;37.11;98625.53;6158200;28;20319;-86
2022/07/17 07:52:43;;;;;;;3.53;0.90;;;;;;;24.19;35.61;98625.06;6159214;28;20225;-86
2022/07/17 07:55:45;;;;;;;1.80;0.80;;;;;;;24.59;34.28;98622.91;6159815;28;20225;-86
2022/07/17 07:58:47;;;;;;;3.63;1.30;;;;;;;24.45;33.53;98621.94;6158936;28;20225;-86
2022/07/17 08:01:49;;;;;;;1.20;0.80;;;;;;;24.81;35.02;98619.25;6159838;28;20304;-86
2022/07/17 08:04:51;;;;;;;2.80;0.90;;;;;;;25.37;34.85;98625.66;6159816;28;20229;-86
2022/07/17 08:07:53;;;;;;;2.67;1.10;;;;;;;25.82;34.38;98626.28;6142653;28;20264;-86
2022/07/17 08:10:55;;;;;;;1.67;0.90;;;;;;;25.90;32.42;98626.13;6142762;28;20608;-86
2022/07/17 08:13:59;;;;;;;3.63;1.00;;;;;;;25.79;31.76;98629.38;6157509;28;20226;-87
2022/07/17 08:17:09;;;;;;;1.35;0.80;;;;;;;26.07;32.03;98632.03;6158999;28;20230;-87
2022/07/17 08:20:12;;;;;;;2.78;0.80;;;;;;;26.00;32.30;98637.44;6158742;28;20237;-86
2022/07/17 08:23:15;;;;;;;2.45;0.82;;;;;;;25.36;33.05;98640.19;6158564;28;20237;-85
2022/07/17 08:26:17;;;;;;;4.05;1.00;;;;;;;25.67;31.47;98628.22;6141823;28;20253;-86
2022/07/17 08:29:19;;;;;;;1.33;0.90;;;;;;;26.43;31.06;98631.88;6159526;28;20225;-86
2022/07/17 08:32:42;;;;;;;5.53;4.40;;;;;;;26.91;31.33;98632.69;6139035;28;20243;-86
2022/07/17 08:35:45;;;;;;;4.22;2.95;;;;;;;27.23;31.08;98633.84;6151241;28;20717;-86
2022/07/17 08:38:47;;;;;;;3.05;2.38;;;;;;;27.25;30.70;98637.19;6173482;28;20234;-86
2022/07/17 08:41:49;;;;;;;1.67;1.50;;;;;;;26.91;29.86;98629.97;6150320;28;20321;-86
2022/07/17 08:44:51;;;;;;;1.27;0.80;;;;;;;27.16;30.84;98633.81;6141123;28;20791;-86
2022/07/17 08:47:55;;;;;;;1.52;0.80;;;;;;;27.55;28.99;98632.25;6142512;28;20241;-87
2022/07/17 08:50:59;;;;;;;1.02;0.73;;;;;;;27.56;28.75;98639.31;6172606;28;20718;-86
2022/07/17 08:54:01;;;;;;;3.45;1.05;;;;;;;27.63;28.22;98634.75;6159022;28;20223;-86
2022/07/17 08:57:03;;;;;;;1.52;0.93;;;;;;;27.91;28.89;98629.94;6157728;28;20297;-86
2022/07/17 09:00:07;;;;;;;1.50;0.70;;;;;;;27.97;27.63;98621.97;6157812;28;20232;-86
2022/07/17 09:03:09;;;;;;;1.27;0.75;;;;;;;28.35;28.73;98624.88;6158496;28;20218;-86
2022/07/17 09:06:20;;;;;;;1.35;0.70;;;;;;;28.50;28.31;98623.53;6157909;28;20701;-86
2022/07/17 09:09:22;;;;;;;1.13;0.70;;;;;;;28.57;27.23;98613.47;6157643;28;20714;-87
2022/07/17 09:12:29;;;;;;;1.02;0.73;;;;;;;28.83;26.99;98609.03;6145369;28;20712;-86
2022/07/17 09:15:33;;;;;;;1.33;0.90;;;;;;;28.74;27.84;98610.28;6159807;28;20233;-87
2022/07/17 09:18:45;;;;;;;3.05;1.00;;;;;;;28.23;25.97;98620.09;6157846;28;20281;-86
2022/07/17 09:21:50;;;;;;;3.50;0.90;;;;;;;27.99;28.00;98620.72;6157411;28;20234;-87
2022/07/17 09:24:57;;;;;;;1.30;0.90;;;;;;;27.85;26.54;98619.91;6149869;28;20377;-87
2022/07/17 09:28:02;;;;;;;1.10;0.90;;;;;;;28.01;26.88;98615.91;6145804;28;20239;-87
2022/07/17 09:31:04;;;;;;;0.85;0.82;;;;;;;28.94;27.50;98608.34;6166698;28;20244;-86
2022/07/17 09:34:17;;;;;;;1.55;0.70;;;;;;;29.34;26.28;98608.91;6142901;28;20236;-87
2022/07/17 09:37:22;;;;;;;1.92;0.85;;;;;;;29.69;26.26;98618.25;6145959;28;20714;-87
2022/07/17 09:43:48;;;;;;;1.00;0.80;;;;;;;29.79;25.71;98608.75;6173253;28;20320;-87
2022/07/17 09:46:50;;;;;;;2.17;1.10;;;;;;;29.72;25.08;98595.22;6156825;28;20768;-87
2022/07/17 09:49:54;;;;;;;2.22;1.15;;;;;;;29.96;25.04;98594.38;6140027;28;20340;-88
2022/07/17 09:52:57;;;;;;;2.10;0.90;;;;;;;30.21;24.95;98610.69;6156581;28;20269;-87
2022/07/17 09:56:02;;;;;;;1.55;0.75;;;;;;;30.97;24.36;98603.88;6141136;28;20226;-87
2022/07/17 09:59:06;;;;;;;1.75;1.17;;;;;;;30.92;24.10;98599.13;6148032;28;20241;-87
2022/07/17 10:02:12;;;;;;;1.00;1.00;;;;;;;30.55;24.04;98597.50;6156745;28;20244;-87
2022/07/17 10:05:15;;;;;;;2.65;0.98;;;;;;;30.49;23.99;98592.97;6140370;28;20237;-86
2022/07/17 10:08:19;;;;;;;1.35;1.00;;;;;;;30.54;24.54;98595.88;6140649;28;20234;-87
2022/07/17 10:11:23;;;;;;;3.75;1.17;;;;;;;31.34;24.41;98591.00;6155508;28;20581;-87
2022/07/17 10:14:26;;;;;;;3.40;1.00;;;;;;;31.38;23.20;98586.72;6156351;28;20294;-88
2022/07/17 10:17:28;;;;;;;3.85;0.93;;;;;;;31.15;24.07;98588.31;6156618;28;20329;-88
2022/07/17 10:20:30;;;;;;;1.50;0.80;;;;;;;31.20;24.13;98590.34;6157184;28;20752;-90
2022/07/17 10:23:32;;;;;;;1.10;0.80;;;;;;;30.75;24.28;98595.38;6141779;28;20268;-89
2022/07/17 10:26:34;;;;;;;1.60;0.80;;;;;;;30.17;25.04;98604.00;6141960;28;20342;-90
2022/07/17 10:29:39;;;;;;;2.97;1.13;;;;;;;29.80;25.30;98597.66;6146065;28;20244;-87
2022/07/17 10:32:53;;;;;;;1.35;0.93;;;;;;;30.07;24.65;98588.19;6156936;28;20243;-87
2022/07/17 10:35:59;;;;;;;1.90;0.90;;;;;;;30.50;23.38;98575.56;6141880;28;20230;-88
2022/07/17 10:39:17;;;;;;;1.27;0.75;;;;;;;30.98;24.05;98576.38;6157029;28;20693;-87
2022/07/17 10:42:41;;;;;;;0.95;0.85;;;;;;;30.59;24.07;98583.22;6173204;28;20324;-87
2022/07/17 10:45:45;;;;;;;1.67;1.08;;;;;;;29.88;23.84;98583.75;6151941;28;20234;-88
2022/07/17 10:48:49;;;;;;;1.88;1.00;;;;;;;29.93;25.32;98578.47;6139588;28;20265;-88
2022/07/17 10:51:52;;;;;;;3.92;1.00;;;;;;;30.18;24.85;98583.06;6156339;28;20241;-87
2022/07/17 10:54:54;;;;;;;3.08;1.02;;;;;;;30.68;24.19;98576.38;6171702;28;20245;-87
2022/07/17 10:57:56;;;;;;;1.10;1.00;;;;;;;31.44;23.96;98567.53;6147230;28;20230;-87
2022/07/17 11:01:06;;;;;;;2.20;1.00;;;;;;;31.20;23.18;98571.25;6131574;28;20230;-87
2022/07/17 11:04:09;;;;;;;1.25;0.80;;;;;;;30.86;23.55;98556.41;6155385;28;20700;-87
2022/07/17 11:07:11;;;;;;;2.72;1.20;;;;;;;30.78;23.67;98554.03;6171052;28;20320;-87
2022/07/17 11:10:13;;;;;;;2.65;1.13;;;;;;;30.64;24.31;98560.75;6139163;28;20705;-88
2022/07/17 11:13:16;;;;;;;1.70;1.00;;;;;;;30.51;23.93;98555.41;6148439;28;20293;-90
2022/07/17 11:16:29;;;;;;;2.45;1.00;;;;;;;30.28;23.79;98545.22;6120792;28;20232;-89
2022/07/17 11:19:39;;;;;;;1.08;0.98;;;;;;;30.21;24.38;98550.75;6154738;28;20667;-91
2022/07/17 11:22:42;;;;;;;1.33;1.20;;;;;;;30.03;24.84;98545.31;6141595;28;20230;-91
2022/07/17 11:26:04;;;;;;;3.38;1.23;;;;;;;30.67;23.48;98552.06;6138889;28;20326;-87
2022/07/17 11:29:06;;;;;;;3.03;1.20;;;;;;;30.93;23.03;98549.00;6138799;28;20756;-86
2022/07/17 11:32:09;;;;;;;1.90;1.10;;;;;;;30.65;23.85;98544.13;6130619;28;20234;-86
2022/07/17 11:35:19;;;;;;;2.58;1.02;;;;;;;31.32;22.88;98549.47;6132889;28;20249;-87
2022/07/17 11:38:41;;;;;;;2.70;1.20;;;;;;;30.44;23.52;98537.28;6141825;28;20728;-87
2022/07/17 11:41:46;;;;;;;1.23;0.93;;;;;;;30.61;23.44;98537.50;6158820;28;20222;-87
2022/07/17 11:44:50;;;;;;;2.35;1.08;;;;;;;31.47;22.96;98522.53;6154686;28;20234;-86
2022/07/17 11:47:53;;;;;;;1.10;1.00;;;;;;;32.14;22.16;98506.63;6154313;28;20237;-86
2022/07/17 11:50:55;;;;;;;1.27;1.13;;;;;;;32.55;22.08;98519.19;6154569;28;20229;-87
2022/07/17 11:54:04;;;;;;;2.95;1.13;;;;;;;32.72;21.44;98520.13;6154575;28;20217;-86
2022/07/17 11:57:06;;;;;;;1.83;1.02;;;;;;;33.13;21.09;98510.75;6154484;28;20624;-87
2022/07/17 12:00:10;;;;;;;2.42;1.20;;;;;;;33.41;21.03;98506.28;6154754;28;20217;-86
2022/07/17 12:03:12;;;;;;;1.45;1.00;;;;;;;32.93;20.91;98508.47;6146909;28;20587;-86
2022/07/17 12:06:25;;;;;;;2.20;1.10;;;;;;;31.99;21.38;98501.66;6124773;28;20714;-86
2022/07/17 12:09:34;;;;;;;1.92;1.05;;;;;;;31.77;20.02;98493.25;6154538;28;20345;-86
2022/07/17 12:12:36;;;;;;;1.58;1.10;;;;;;;32.23;20.22;98494.25;6130244;28;20611;-86
2022/07/17 12:15:42;;;;;;;2.47;1.00;;;;;;;32.28;20.62;98488.06;6160499;28;20335;-86
2022/07/17 12:18:54;;;;;;;3.60;1.10;;;;;;;31.58;21.44;98490.84;6159803;28;20253;-86
2022/07/17 12:22:03;;;;;;;1.50;0.88;;;;;;;31.42;22.21;98482.34;6158823;28;20232;-86
2022/07/17 12:25:05;;;;;;;1.92;0.90;;;;;;;31.75;21.51;98487.19;6159102;28;20710;-86
2022/07/17 12:28:07;;;;;;;1.83;0.85;;;;;;;32.47;21.15;98481.31;6141664;28;20589;-87
2022/07/17 12:31:16;;;;;;;1.02;0.90;;;;;;;32.56;20.82;98488.06;6158711;28;20245;-86
2022/07/17 12:34:18;;;;;;;2.13;1.15;;;;;;;32.42;20.48;98490.28;6151682;28;20238;-87
2022/07/17 12:37:21;;;;;;;0.95;0.82;;;;;;;32.17;20.65;98489.75;6134721;28;20706;-86
2022/07/17 12:40:23;;;;;;;1.92;0.80;;;;;;;31.89;20.40;98496.78;6149948;28;20230;-87
2022/07/17 12:43:26;;;;;;;1.48;0.88;;;;;;;31.02;21.13;98487.59;6150906;28;20317;-86
2022/07/17 12:46:28;;;;;;;5.80;1.02;;;;;;;30.80;22.20;98494.66;6159959;28;20329;-87
2022/07/17 12:49:31;;;;;;;1.40;0.75;;;;;;;30.80;22.45;98483.75;6141169;28;20711;-87
2022/07/17 12:52:33;;;;;;;1.05;0.75;;;;;;;31.47;21.81;98487.06;6157731;28;20325;-86
2022/07/17 12:55:36;;;;;;;2.97;0.80;;;;;;;31.53;20.99;98486.13;6146050;28;20238;-86
2022/07/17 12:58:39;;;;;;;0.90;0.90;;;;;;;30.88;21.43;98485.31;6158476;28;20244;-86
2022/07/17 13:01:41;;;;;;;4.15;1.20;;;;;;;30.90;21.86;98485.91;6158860;28;20312;-86
2022/07/17 13:04:43;;;;;;;2.75;1.20;;;;;;;31.03;21.54;98480.25;6157507;28;20722;-86
2022/07/17 13:07:45;;;;;;;3.75;0.88;;;;;;;30.74;21.93;98469.19;6159131;28;20229;-86
2022/07/17 13:10:47;;;;;;;2.05;0.93;;;;;;;31.00;22.25;98470.63;6157149;28;20241;-86
2022/07/17 13:13:50;;;;;;;2.58;1.13;;;;;;;31.81;21.03;98471.75;6157872;28;20649;-86
2022/07/17 13:16:52;;;;;;;2.78;1.08;;;;;;;31.57;21.71;98475.53;6141279;28;20658;-86
2022/07/17 13:19:54;;;;;;;1.52;1.10;;;;;;;31.17;21.87;98471.63;6158622;28;20252;-86
2022/07/17 13:22:56;;;;;;;3.85;1.02;;;;;;;32.05;20.97;98469.78;6157195;28;20256;-86
2022/07/17 13:25:58;;;;;;;2.50;0.90;;;;;;;32.53;19.93;98469.44;6156737;28;20709;-87
2022/07/17 13:29:00;;;;;;;1.20;1.00;;;;;;;32.51;20.21;98464.22;6149578;28;20227;-87
2022/07/17 13:32:04;;;;;;;1.90;1.13;;;;;;;32.76;20.35;98463.03;6181018;28;20316;-86
2022/07/17 13:35:07;;;;;;;1.25;0.80;;;;;;;32.31;19.97;98460.25;6172424;28;20239;-86
2022/07/17 13:38:09;;;;;;;1.50;0.75;;;;;;;32.06;19.46;98453.16;6158368;28;20284;-87
2022/07/17 13:41:11;;;;;;;4.30;1.40;;;;;;;31.85;20.47;98453.81;6170892;28;20229;-86
2022/07/17 13:44:13;;;;;;;1.38;0.90;;;;;;;32.43;20.55;98466.50;6156835;28;20246;-86
2022/07/17 13:47:15;;;;;;;3.33;0.88;;;;;;;33.50;19.55;98452.78;6156463;28;20732;-86
2022/07/17 13:50:18;;;;;;;1.38;0.93;;;;;;;33.93;18.70;98458.34;6156610;28;20241;-86
2022/07/17 13:53:20;;;;;;;1.60;1.17;;;;;;;33.90;19.04;98452.53;6149244;28;20606;-87
2022/07/17 13:56:22;;;;;;;1.05;0.82;;;;;;;33.27;19.43;98465.56;6134401;28;20611;-86
2022/07/17 13:59:24;;;;;;;1.10;0.73;;;;;;;33.74;19.56;98459.72;6149068;28;20233;-87
2022/07/17 14:02:29;;;;;;;1.92;1.13;;;;;;;34.77;18.61;98466.16;6137369;28;20234;-88
2022/07/17 14:05:31;;;;;;;1.92;1.10;;;;;;;34.88;17.07;98464.34;6132914;28;20226;-86
2022/07/17 14:08:34;;;;;;;1.30;1.10;;;;;;;34.90;17.53;98465.75;6138581;28;21038;-86
2022/07/17 14:11:37;;;;;;;1.13;1.00;;;;;;;35.22;16.70;98454.75;6140489;28;20377;-87
2022/07/17 14:14:39;;;;;;;1.52;1.05;;;;;;;36.15;16.80;98450.38;6157353;28;20764;-87
2022/07/17 14:17:41;;;;;;;1.02;0.70;;;;;;;36.81;15.21;98447.00;6171600;28;20307;-87
2022/07/17 14:20:44;;;;;;;1.48;1.00;;;;;;;38.37;14.60;98462.44;6156102;28;20261;-87
2022/07/17 14:23:46;;;;;;;2.05;1.15;;;;;;;39.85;13.07;98451.03;6156027;28;20240;-87
2022/07/17 14:26:48;;;;;;;0.90;0.80;;;;;;;41.48;12.62;98446.72;6156087;28;20237;-87